Modale, Iowa
Current Conditions -  °F | °C
As of 8:54 PM on Wednesday 22 Oct 2014 (Local Time) from KTQE Reporting Station
Moderate Rain Moderate Rain  
Wind Chill: 63°   Ceiling: 9000
Heat Index: 63°   Visibility: 6mi
Dew Point: 60°   Wind: 8mph
Humidity: 90%   Direction: 250°WSW
Pressure: 30.03"   Gusts: NA
Location:  41.62°N, 96.01°W
Report Text: KTQE 230154Z AUTO 25007KT 6SM RA BR OVC090 17/16 A3003 RMK AO2 SLP163 P0008 T01720156
Loading
Personal Weather Stations






























Interactive Weather Map
Tropical Storm Tracking
New forecast layout! Learn more

10-Day Weather Forecast

Advertisements
Track Severe Weather on mobile